Auburndale, Wisconsin
Current Conditions -  °F | °C
As of 5:54 AM on Friday 19 Dec 2014 (Local Time) from KMFI Reporting Station
Overcast Overcast  
Wind Chill: 17°   Ceiling: 1400
Heat Index: 24°   Visibility: 10mi
Dew Point: 19°   Wind: 6mph
Humidity: 81%   Direction: 220°SW
Pressure: 30.25"   Gusts: NA
Location:  44.63°N, 90.01°W
Report Text: KMFI 191154Z AUTO 22005KT 10SM OVC014 M04/M07 A3025 RMK AO2 SLP263 T10441072 11044 21044 55000
Loading
Personal Weather Stations






























Interactive Weather Map New forecast layout! Learn more

10-Day Weather Forecast

Advertisements
Track Severe Weather on mobile